Madeline — WDF2406 — position and weather

sailwx.info

Track history (hours):
 
Tides and Currents Weather Stations Pressure Air Temp Water Temp Dewpoint Dewpoint Depression Visibility Wind Speed Wind Dir Waves Ship Positions

Madeline

Owner: Enterprise Marine Services, LLC, San Antonio, TX. More information available from US FCC via Universal Licensing System and Coast Guard Vessel Documentation Center.

Last reported at 2014-Dec-22 22:33 UTC. Time now 2014-Dec-22 23:28 UTC.
Position N 29°45' W 095°06'.

Length 30 m; draft 8 m.

Type: Tug. MMSI: 367350460.

Date/timePositionNaut miles runAvg speedWind from/ knotsBaromVisibWave heightAir tempDewpointWater temp
2014-Dec-22 22:33N 29°45' W 095°06'3 3.1
2014-Dec-22 21:33N 29°47' W 095°04'0 0.5
2014-Dec-22 20:33N 29°47' W 095°04'1 0.8
2014-Dec-22 19:33N 29°47' W 095°05'0 0.0
2014-Dec-22 18:31N 29°47' W 095°05'0 0.0
2014-Dec-22 17:31N 29°47' W 095°05'0 0.0
2014-Dec-22 16:33N 29°47' W 095°05'0 0.0
2014-Dec-22 15:33N 29°47' W 095°05'0 0.0
2014-Dec-22 14:33N 29°47' W 095°05'0 0.0
2014-Dec-22 13:33N 29°47' W 095°05'1 0.6
2014-Dec-22 12:26N 29°47' W 095°04'2 1.7
2014-Dec-22 11:33N 29°46' W 095°05'5 4.7
2014-Dec-22 10:33N 29°42' W 095°01'6 5.7
2014-Dec-22 09:32N 29°38' W 094°58'  
2014-Dec-18 01:31N 29°28' W 094°51'5 5.3
2014-Dec-18 00:33N 29°33' W 094°55'6 5.4
2014-Dec-17 23:30N 29°38' W 094°58'5 5.5
2014-Dec-17 22:33N 29°42' W 095°01'5 4.5
2014-Dec-17 21:22N 29°47' W 095°05'1 1.0
2014-Dec-17 20:33N 29°47' W 095°04'1 0.6
2014-Dec-17 19:30N 29°47' W 095°05'0 0.0
2014-Dec-17 18:33N 29°47' W 095°05'0 0.0
2014-Dec-17 17:33N 29°47' W 095°05'0 0.0
2014-Dec-17 16:24N 29°47' W 095°05'0 0.0
2014-Dec-17 15:33N 29°47' W 095°05'0 0.0
2014-Dec-17 14:33N 29°47' W 095°05'0 0.0
2014-Dec-17 13:33N 29°47' W 095°05'0 0.0
2014-Dec-16 23:30N 29°47' W 095°05'0 0.0
2014-Dec-16 22:25N 29°47' W 095°05'0 0.0
2014-Dec-16 21:28N 29°47' W 095°05'0 0.0
2014-Dec-16 20:07N 29°47' W 095°05'0 0.0
2014-Dec-16 19:32N 29°47' W 095°05'0 0.0
2014-Dec-16 18:08N 29°47' W 095°05'0 0.0
2014-Dec-16 17:33N 29°47' W 095°05'0 0.0
2014-Dec-16 16:33N 29°47' W 095°05'0 0.0
2014-Dec-16 15:33N 29°47' W 095°05'0 0.0
2014-Dec-16 14:28N 29°47' W 095°05'0 0.0
2014-Dec-16 13:33N 29°47' W 095°05'0 0.0
2014-Dec-16 12:33N 29°47' W 095°05'0 0.0
2014-Dec-16 11:33N 29°47' W 095°05'873872.7
2014-Dec-16 10:33N 29°47' W 111°51'873872.7
2014-Dec-16 09:33N 29°47' W 095°05'0 0.0
2014-Dec-16 08:33N 29°47' W 095°05'0 0.0
2014-Dec-16 07:33N 29°47' W 095°05'0 0.0
2014-Dec-16 06:33N 29°47' W 095°05'0 0.0
2014-Dec-16 05:29N 29°47' W 095°05'0 0.0
2014-Dec-16 04:33N 29°47' W 095°05'0 0.0
2014-Dec-16 03:30N 29°47' W 095°05'0 0.0
2014-Dec-16 02:33N 29°47' W 095°05'0 0.0
2014-Dec-16 01:31N 29°47' W 095°05'0 0.0
2014-Dec-16 00:16N 29°47' W 095°05'0 0.0
2014-Dec-15 23:33N 29°47' W 095°05'0 0.0
2014-Dec-15 22:33N 29°47' W 095°05'0 0.0
2014-Dec-15 21:30N 29°47' W 095°05'0 0.0
2014-Dec-15 20:33N 29°47' W 095°05'0 0.0
2014-Dec-15 19:32N 29°47' W 095°05'0 0.0
2014-Dec-15 17:31N 29°47' W 095°05'0 0.1
2014-Dec-15 16:33N 29°47' W 095°05'0 0.1
2014-Dec-15 15:30N 29°47' W 095°05'0 0.0
2014-Dec-15 14:32N 29°47' W 095°05'0 0.0
2014-Dec-14 23:29N 29°47' W 095°05'0 0.0
2014-Dec-14 22:33N 29°47' W 095°05'0 0.0
2014-Dec-14 21:32N 29°47' W 095°05'0 0.0
2014-Dec-14 20:33N 29°47' W 095°05'0 0.0
2014-Dec-14 19:33N 29°47' W 095°05'0 0.0
2014-Dec-14 18:33N 29°47' W 095°05'0 0.0
2014-Dec-14 17:32N 29°47' W 095°05'0 0.0
2014-Dec-14 16:34N 29°47' W 095°05'0 0.0
2014-Dec-14 15:30N 29°47' W 095°05'0 0.0
2014-Dec-14 14:33N 29°47' W 095°05'0 0.0
2014-Dec-14 13:33N 29°47' W 095°05'0 0.0
2014-Dec-13 23:13N 29°47' W 095°05'0 0.0
2014-Dec-13 22:33N 29°47' W 095°05'0 0.1
2014-Dec-13 21:26N 29°47' W 095°05'0 0.0
2014-Dec-13 20:20N 29°47' W 095°05'0 0.0
2014-Dec-13 18:19N 29°47' W 095°05'0 0.0
2014-Dec-13 17:33N 29°47' W 095°05'0 0.1
2014-Dec-13 16:33N 29°47' W 095°05'1 0.8
2014-Dec-13 15:33N 29°47' W 095°04'1 0.6
2014-Dec-13 14:33N 29°47' W 095°05'0 0.1
2014-Dec-13 13:33N 29°47' W 095°05'0 0.0
2014-Dec-13 12:33N 29°47' W 095°05'0 0.0
2014-Dec-13 11:33N 29°47' W 095°05'0 0.0
2014-Dec-13 10:33N 29°47' W 095°05'0 0.0
2014-Dec-13 09:33N 29°47' W 095°05'0 0.0
2014-Dec-13 08:33N 29°47' W 095°05'0 0.0
2014-Dec-13 07:33N 29°47' W 095°05'0 0.0
2014-Dec-13 06:33N 29°47' W 095°05'0 0.0
2014-Dec-13 05:33N 29°47' W 095°05'0 0.0
2014-Dec-13 04:33N 29°47' W 095°05'0 0.0
2014-Dec-13 03:32N 29°47' W 095°05'0 0.0
2014-Dec-13 02:33N 29°47' W 095°05'0 0.0
2014-Dec-13 01:34N 29°47' W 095°05'0 0.0
2014-Dec-13 00:34N 29°47' W 095°05'0 0.0
2014-Dec-12 23:31N 29°47' W 095°05'0 0.0
2014-Dec-12 22:34N 29°47' W 095°05'  
Track history (hours):
 
Tides and Currents Weather Stations Pressure Air Temp Water Temp Dewpoint Dewpoint Depression Visibility Wind Speed Wind Dir Waves Ship Positions

Madeline

Owner: Enterprise Marine Services, LLC, San Antonio, TX. More information available from US FCC via Universal Licensing System and Coast Guard Vessel Documentation Center.

Last reported at 2014-Dec-22 22:33 UTC. Time now 2014-Dec-22 23:28 UTC.
Position N 29°45' W 095°06'.

Length 30 m; draft 8 m.

Type: Tug. MMSI: 367350460.

Date/timePositionNaut miles runAvg speedWind from/ knotsBaromVisibWave heightAir tempDewpointWater temp
2014-Dec-22 22:33N 29°45' W 095°06'3 3.1
2014-Dec-22 21:33N 29°47' W 095°04'0 0.5
2014-Dec-22 20:33N 29°47' W 095°04'1 0.8
2014-Dec-22 19:33N 29°47' W 095°05'0 0.0
2014-Dec-22 18:31N 29°47' W 095°05'0 0.0
2014-Dec-22 17:31N 29°47' W 095°05'0 0.0
2014-Dec-22 16:33N 29°47' W 095°05'0 0.0
2014-Dec-22 15:33N 29°47' W 095°05'0 0.0
2014-Dec-22 14:33N 29°47' W 095°05'0 0.0
2014-Dec-22 13:33N 29°47' W 095°05'1 0.6
2014-Dec-22 12:26N 29°47' W 095°04'2 1.7
2014-Dec-22 11:33N 29°46' W 095°05'5 4.7
2014-Dec-22 10:33N 29°42' W 095°01'6 5.7
2014-Dec-22 09:32N 29°38' W 094°58'  
2014-Dec-18 01:31N 29°28' W 094°51'5 5.3
2014-Dec-18 00:33N 29°33' W 094°55'6 5.4
2014-Dec-17 23:30N 29°38' W 094°58'5 5.5
2014-Dec-17 22:33N 29°42' W 095°01'5 4.5
2014-Dec-17 21:22N 29°47' W 095°05'1 1.0
2014-Dec-17 20:33N 29°47' W 095°04'1 0.6
2014-Dec-17 19:30N 29°47' W 095°05'0 0.0
2014-Dec-17 18:33N 29°47' W 095°05'0 0.0
2014-Dec-17 17:33N 29°47' W 095°05'0 0.0
2014-Dec-17 16:24N 29°47' W 095°05'0 0.0
2014-Dec-17 15:33N 29°47' W 095°05'0 0.0
2014-Dec-17 14:33N 29°47' W 095°05'0 0.0
2014-Dec-17 13:33N 29°47' W 095°05'0 0.0
2014-Dec-16 23:30N 29°47' W 095°05'0 0.0
2014-Dec-16 22:25N 29°47' W 095°05'0 0.0
2014-Dec-16 21:28N 29°47' W 095°05'0 0.0
2014-Dec-16 20:07N 29°47' W 095°05'0 0.0
2014-Dec-16 19:32N 29°47' W 095°05'0 0.0
2014-Dec-16 18:08N 29°47' W 095°05'0 0.0
2014-Dec-16 17:33N 29°47' W 095°05'0 0.0
2014-Dec-16 16:33N 29°47' W 095°05'0 0.0
2014-Dec-16 15:33N 29°47' W 095°05'0 0.0
2014-Dec-16 14:28N 29°47' W 095°05'0 0.0
2014-Dec-16 13:33N 29°47' W 095°05'0 0.0
2014-Dec-16 12:33N 29°47' W 095°05'0 0.0
2014-Dec-16 11:33N 29°47' W 095°05'873872.7
2014-Dec-16 10:33N 29°47' W 111°51'873872.7
2014-Dec-16 09:33N 29°47' W 095°05'0 0.0
2014-Dec-16 08:33N 29°47' W 095°05'0 0.0
2014-Dec-16 07:33N 29°47' W 095°05'0 0.0
2014-Dec-16 06:33N 29°47' W 095°05'0 0.0
2014-Dec-16 05:29N 29°47' W 095°05'0 0.0
2014-Dec-16 04:33N 29°47' W 095°05'0 0.0
2014-Dec-16 03:30N 29°47' W 095°05'0 0.0
2014-Dec-16 02:33N 29°47' W 095°05'0 0.0
2014-Dec-16 01:31N 29°47' W 095°05'0 0.0
2014-Dec-16 00:16N 29°47' W 095°05'0 0.0
2014-Dec-15 23:33N 29°47' W 095°05'0 0.0
2014-Dec-15 22:33N 29°47' W 095°05'0 0.0
2014-Dec-15 21:30N 29°47' W 095°05'0 0.0
2014-Dec-15 20:33N 29°47' W 095°05'0 0.0
2014-Dec-15 19:32N 29°47' W 095°05'0 0.0
2014-Dec-15 17:31N 29°47' W 095°05'0 0.1
2014-Dec-15 16:33N 29°47' W 095°05'0 0.1
2014-Dec-15 15:30N 29°47' W 095°05'0 0.0
2014-Dec-15 14:32N 29°47' W 095°05'0 0.0
2014-Dec-14 23:29N 29°47' W 095°05'0 0.0
2014-Dec-14 22:33N 29°47' W 095°05'0 0.0
2014-Dec-14 21:32N 29°47' W 095°05'0 0.0
2014-Dec-14 20:33N 29°47' W 095°05'0 0.0
2014-Dec-14 19:33N 29°47' W 095°05'0 0.0
2014-Dec-14 18:33N 29°47' W 095°05'0 0.0
2014-Dec-14 17:32N 29°47' W 095°05'0 0.0
2014-Dec-14 16:34N 29°47' W 095°05'0 0.0
2014-Dec-14 15:30N 29°47' W 095°05'0 0.0
2014-Dec-14 14:33N 29°47' W 095°05'0 0.0
2014-Dec-14 13:33N 29°47' W 095°05'0 0.0
2014-Dec-13 23:13N 29°47' W 095°05'0 0.0
2014-Dec-13 22:33N 29°47' W 095°05'0 0.1
2014-Dec-13 21:26N 29°47' W 095°05'0 0.0
2014-Dec-13 20:20N 29°47' W 095°05'0 0.0
2014-Dec-13 18:19N 29°47' W 095°05'0 0.0
2014-Dec-13 17:33N 29°47' W 095°05'0 0.1
2014-Dec-13 16:33N 29°47' W 095°05'1 0.8
2014-Dec-13 15:33N 29°47' W 095°04'1 0.6
2014-Dec-13 14:33N 29°47' W 095°05'0 0.1
2014-Dec-13 13:33N 29°47' W 095°05'0 0.0
2014-Dec-13 12:33N 29°47' W 095°05'0 0.0
2014-Dec-13 11:33N 29°47' W 095°05'0 0.0
2014-Dec-13 10:33N 29°47' W 095°05'0 0.0
2014-Dec-13 09:33N 29°47' W 095°05'0 0.0
2014-Dec-13 08:33N 29°47' W 095°05'0 0.0
2014-Dec-13 07:33N 29°47' W 095°05'0 0.0
2014-Dec-13 06:33N 29°47' W 095°05'0 0.0
2014-Dec-13 05:33N 29°47' W 095°05'0 0.0
2014-Dec-13 04:33N 29°47' W 095°05'0 0.0
2014-Dec-13 03:32N 29°47' W 095°05'0 0.0
2014-Dec-13 02:33N 29°47' W 095°05'0 0.0
2014-Dec-13 01:34N 29°47' W 095°05'0 0.0
2014-Dec-13 00:34N 29°47' W 095°05'0 0.0
2014-Dec-12 23:31N 29°47' W 095°05'0 0.0
2014-Dec-12 22:34N 29°47' W 095°05'  

Dump ship's entire track history